sensor_id;sensor_type;location;lat;lon;timestamp;temperature;humidity
60868;DHT22;46702;48.370;10.794;2023-04-23T00:00:48;13.50;99.90
60868;DHT22;46702;48.370;10.794;2023-04-23T00:03:14;13.50;99.90
60868;DHT22;46702;48.370;10.794;2023-04-23T00:05:42;13.50;99.90
60868;DHT22;46702;48.370;10.794;2023-04-23T00:08:10;13.40;99.90
60868;DHT22;46702;48.370;10.794;2023-04-23T00:10:36;13.30;99.90
60868;DHT22;46702;48.370;10.794;2023-04-23T00:13:02;13.40;99.90
60868;DHT22;46702;48.370;10.794;2023-04-23T00:15:29;13.30;99.90
60868;DHT22;46702;48.370;10.794;2023-04-23T00:17:55;13.30;99.90
60868;DHT22;46702;48.370;10.794;2023-04-23T00:20:21;13.30;99.90
60868;DHT22;46702;48.370;10.794;2023-04-23T00:22:47;13.30;99.90
60868;DHT22;46702;48.370;10.794;2023-04-23T00:25:13;13.30;99.90
60868;DHT22;46702;48.370;10.794;2023-04-23T00:27:38;13.30;99.90
60868;DHT22;46702;48.370;10.794;2023-04-23T00:30:04;13.00;99.90
60868;DHT22;46702;48.370;10.794;2023-04-23T00:32:31;12.70;99.90
60868;DHT22;46702;48.370;10.794;2023-04-23T00:34:56;12.70;99.90
60868;DHT22;46702;48.370;10.794;2023-04-23T00:37:22;12.80;99.90
60868;DHT22;46702;48.370;10.794;2023-04-23T00:39:48;12.80;99.90
60868;DHT22;46702;48.370;10.794;2023-04-23T00:42:13;12.90;99.90
60868;DHT22;46702;48.370;10.794;2023-04-23T00:44:42;12.80;99.90
60868;DHT22;46702;48.370;10.794;2023-04-23T00:47:08;12.50;99.90
60868;DHT22;46702;48.370;10.794;2023-04-23T00:49:35;12.30;99.90
60868;DHT22;46702;48.370;10.794;2023-04-23T00:52:01;12.40;99.90
60868;DHT22;46702;48.370;10.794;2023-04-23T00:54:27;12.50;99.90
60868;DHT22;46702;48.370;10.794;2023-04-23T00:56:54;12.50;99.90
60868;DHT22;46702;48.370;10.794;2023-04-23T00:59:20;12.60;99.90
60868;DHT22;46702;48.370;10.794;2023-04-23T01:01:46;12.60;99.90
60868;DHT22;46702;48.370;10.794;2023-04-23T01:04:16;12.60;99.90
60868;DHT22;46702;48.370;10.794;2023-04-23T01:06:42;12.60;99.90
60868;DHT22;46702;48.370;10.794;2023-04-23T01:09:09;12.70;99.90
60868;DHT22;46702;48.370;10.794;2023-04-23T01:11:38;12.80;99.90
60868;DHT22;46702;48.370;10.794;2023-04-23T01:14:04;12.80;99.90
60868;DHT22;46702;48.370;10.794;2023-04-23T01:16:31;12.80;99.90
60868;DHT22;46702;48.370;10.794;2023-04-23T01:18:56;12.90;99.90
60868;DHT22;46702;48.370;10.794;2023-04-23T01:21:23;12.80;99.90
60868;DHT22;46702;48.370;10.794;2023-04-23T01:23:49;12.80;99.90
60868;DHT22;46702;48.370;10.794;2023-04-23T01:26:15;12.80;99.90
60868;DHT22;46702;48.370;10.794;2023-04-23T01:28:43;12.80;99.90
60868;DHT22;46702;48.370;10.794;2023-04-23T01:31:10;12.60;99.90
60868;DHT22;46702;48.370;10.794;2023-04-23T01:33:39;12.60;99.90
60868;DHT22;46702;48.370;10.794;2023-04-23T01:36:05;12.40;99.90
60868;DHT22;46702;48.370;10.794;2023-04-23T01:38:32;12.40;99.90
60868;DHT22;46702;48.370;10.794;2023-04-23T01:40:58;12.40;99.90
60868;DHT22;46702;48.370;10.794;2023-04-23T01:43:24;12.30;99.90
60868;DHT22;46702;48.370;10.794;2023-04-23T01:45:49;12.20;99.90
60868;DHT22;46702;48.370;10.794;2023-04-23T01:48:15;12.20;99.90
60868;DHT22;46702;48.370;10.794;2023-04-23T01:50:42;12.10;99.90
60868;DHT22;46702;48.370;10.794;2023-04-23T01:53:08;12.10;99.90
60868;DHT22;46702;48.370;10.794;2023-04-23T01:55:36;12.10;99.90
60868;DHT22;46702;48.370;10.794;2023-04-23T01:58:02;12.10;99.90
60868;DHT22;46702;48.370;10.794;2023-04-23T02:00:28;12.20;99.90
60868;DHT22;46702;48.370;10.794;2023-04-23T02:02:54;12.20;99.90
60868;DHT22;46702;48.370;10.794;2023-04-23T02:05:20;12.30;99.90
60868;DHT22;46702;48.370;10.794;2023-04-23T02:07:47;12.30;99.90
60868;DHT22;46702;48.370;10.794;2023-04-23T02:10:14;12.30;99.90
60868;DHT22;46702;48.370;10.794;2023-04-23T02:12:40;12.20;99.90
60868;DHT22;46702;48.370;10.794;2023-04-23T02:15:07;12.20;99.90
60868;DHT22;46702;48.370;10.794;2023-04-23T02:17:33;12.30;99.90
60868;DHT22;46702;48.370;10.794;2023-04-23T02:19:59;12.30;99.90
60868;DHT22;46702;48.370;10.794;2023-04-23T02:22:25;12.10;99.90
60868;DHT22;46702;48.370;10.794;2023-04-23T02:24:53;12.10;99.90
60868;DHT22;46702;48.370;10.794;2023-04-23T02:27:20;12.20;99.90
60868;DHT22;46702;48.370;10.794;2023-04-23T02:29:48;12.20;99.90
60868;DHT22;46702;48.370;10.794;2023-04-23T02:32:14;12.30;99.90
60868;DHT22;46702;48.370;10.794;2023-04-23T02:34:39;12.30;99.90
60868;DHT22;46702;48.370;10.794;2023-04-23T02:37:05;12.30;99.90
60868;DHT22;46702;48.370;10.794;2023-04-23T02:39:31;12.30;99.90
60868;DHT22;46702;48.370;10.794;2023-04-23T02:41:57;12.30;99.90
60868;DHT22;46702;48.370;10.794;2023-04-23T02:44:23;12.30;99.90
60868;DHT22;46702;48.370;10.794;2023-04-23T02:46:50;12.40;99.90
60868;DHT22;46702;48.370;10.794;2023-04-23T02:49:16;12.40;99.90
60868;DHT22;46702;48.370;10.794;2023-04-23T02:51:42;12.40;99.90
60868;DHT22;46702;48.370;10.794;2023-04-23T02:54:07;12.30;99.90
60868;DHT22;46702;48.370;10.794;2023-04-23T02:56:33;12.30;99.90
60868;DHT22;46702;48.370;10.794;2023-04-23T02:58:59;12.20;99.90
60868;DHT22;46702;48.370;10.794;2023-04-23T03:01:25;12.20;99.90
60868;DHT22;46702;48.370;10.794;2023-04-23T03:03:51;12.20;99.90
60868;DHT22;46702;48.370;10.794;2023-04-23T03:06:17;12.10;99.90
60868;DHT22;46702;48.370;10.794;2023-04-23T03:08:43;12.10;99.90
60868;DHT22;46702;48.370;10.794;2023-04-23T03:11:09;12.10;99.90
60868;DHT22;46702;48.370;10.794;2023-04-23T03:13:34;12.10;99.90
60868;DHT22;46702;48.370;10.794;2023-04-23T03:16:00;12.00;99.90
60868;DHT22;46702;48.370;10.794;2023-04-23T03:18:25;12.00;99.90
60868;DHT22;46702;48.370;10.794;2023-04-23T03:20:51;12.10;99.90
60868;DHT22;46702;48.370;10.794;2023-04-23T03:23:16;12.00;99.90
60868;DHT22;46702;48.370;10.794;2023-04-23T03:25:42;12.00;99.90
60868;DHT22;46702;48.370;10.794;2023-04-23T03:28:08;12.00;99.90
60868;DHT22;46702;48.370;10.794;2023-04-23T03:30:33;12.00;99.90
60868;DHT22;46702;48.370;10.794;2023-04-23T03:32:59;12.00;99.90
60868;DHT22;46702;48.370;10.794;2023-04-23T03:35:26;12.00;99.90
60868;DHT22;46702;48.370;10.794;2023-04-23T03:37:52;12.00;99.90
60868;DHT22;46702;48.370;10.794;2023-04-23T03:40:18;11.90;99.90
60868;DHT22;46702;48.370;10.794;2023-04-23T03:42:44;12.00;99.90
60868;DHT22;46702;48.370;10.794;2023-04-23T03:45:10;12.00;99.90
60868;DHT22;46702;48.370;10.794;2023-04-23T03:47:38;12.00;99.90
60868;DHT22;46702;48.370;10.794;2023-04-23T03:50:04;12.00;99.90
60868;DHT22;46702;48.370;10.794;2023-04-23T03:52:29;12.00;99.90
60868;DHT22;46702;48.370;10.794;2023-04-23T03:54:55;12.10;99.90
60868;DHT22;46702;48.370;10.794;2023-04-23T03:57:21;12.00;99.90
60868;DHT22;46702;48.370;10.794;2023-04-23T03:59:46;12.00;99.90
60868;DHT22;46702;48.370;10.794;2023-04-23T04:02:12;11.90;99.90
60868;DHT22;46702;48.370;10.794;2023-04-23T04:04:37;11.90;99.90
60868;DHT22;46702;48.370;10.794;2023-04-23T04:07:03;12.00;99.90
60868;DHT22;46702;48.370;10.794;2023-04-23T04:09:30;11.90;99.90
60868;DHT22;46702;48.370;10.794;2023-04-23T04:11:55;11.90;99.90
60868;DHT22;46702;48.370;10.794;2023-04-23T04:14:21;11.90;99.90
60868;DHT22;46702;48.370;10.794;2023-04-23T04:16:47;11.90;99.90
60868;DHT22;46702;48.370;10.794;2023-04-23T04:19:13;11.90;99.90
60868;DHT22;46702;48.370;10.794;2023-04-23T04:21:38;11.90;99.90
60868;DHT22;46702;48.370;10.794;2023-04-23T04:24:04;11.80;99.90
60868;DHT22;46702;48.370;10.794;2023-04-23T04:26:30;11.80;99.90
60868;DHT22;46702;48.370;10.794;2023-04-23T04:29:01;11.80;99.90
60868;DHT22;46702;48.370;10.794;2023-04-23T04:31:27;11.80;99.90
60868;DHT22;46702;48.370;10.794;2023-04-23T04:33:54;11.80;99.90
60868;DHT22;46702;48.370;10.794;2023-04-23T04:36:20;11.70;99.90
60868;DHT22;46702;48.370;10.794;2023-04-23T04:38:46;11.70;99.90
60868;DHT22;46702;48.370;10.794;2023-04-23T04:41:12;11.70;99.90
60868;DHT22;46702;48.370;10.794;2023-04-23T04:43:39;11.70;99.90
60868;DHT22;46702;48.370;10.794;2023-04-23T04:46:04;11.60;99.90
60868;DHT22;46702;48.370;10.794;2023-04-23T04:48:30;11.70;99.90
60868;DHT22;46702;48.370;10.794;2023-04-23T04:50:55;11.60;99.90
60868;DHT22;46702;48.370;10.794;2023-04-23T04:53:22;11.60;99.90
60868;DHT22;46702;48.370;10.794;2023-04-23T04:55:47;11.60;99.90
60868;DHT22;46702;48.370;10.794;2023-04-23T04:58:13;11.60;99.90
60868;DHT22;46702;48.370;10.794;2023-04-23T05:00:39;11.60;99.90
60868;DHT22;46702;48.370;10.794;2023-04-23T05:03:05;11.60;99.90
60868;DHT22;46702;48.370;10.794;2023-04-23T05:05:33;11.70;99.90
60868;DHT22;46702;48.370;10.794;2023-04-23T05:07:58;11.60;99.90
60868;DHT22;46702;48.370;10.794;2023-04-23T05:10:32;11.60;99.90
60868;DHT22;46702;48.370;10.794;2023-04-23T05:12:59;11.60;99.90
60868;DHT22;46702;48.370;10.794;2023-04-23T05:15:25;11.60;99.90
60868;DHT22;46702;48.370;10.794;2023-04-23T05:17:50;11.70;99.90
60868;DHT22;46702;48.370;10.794;2023-04-23T05:20:18;11.70;99.90
60868;DHT22;46702;48.370;10.794;2023-04-23T05:22:44;11.70;99.90
60868;DHT22;46702;48.370;10.794;2023-04-23T05:25:10;11.70;99.90
60868;DHT22;46702;48.370;10.794;2023-04-23T05:27:36;11.70;99.90
60868;DHT22;46702;48.370;10.794;2023-04-23T05:30:04;11.70;99.90
60868;DHT22;46702;48.370;10.794;2023-04-23T05:32:30;11.70;99.90
60868;DHT22;46702;48.370;10.794;2023-04-23T05:34:56;11.70;99.90
60868;DHT22;46702;48.370;10.794;2023-04-23T05:37:21;11.70;99.90
60868;DHT22;46702;48.370;10.794;2023-04-23T05:39:47;11.70;99.90
60868;DHT22;46702;48.370;10.794;2023-04-23T05:42:12;11.70;99.90
60868;DHT22;46702;48.370;10.794;2023-04-23T05:44:38;11.80;99.90
60868;DHT22;46702;48.370;10.794;2023-04-23T05:47:06;11.80;99.90
60868;DHT22;46702;48.370;10.794;2023-04-23T05:49:31;11.80;99.90
60868;DHT22;46702;48.370;10.794;2023-04-23T05:51:57;11.80;99.90
60868;DHT22;46702;48.370;10.794;2023-04-23T05:54:23;11.80;99.90
60868;DHT22;46702;48.370;10.794;2023-04-23T05:56:49;11.80;99.90
60868;DHT22;46702;48.370;10.794;2023-04-23T05:59:14;11.80;99.90
60868;DHT22;46702;48.370;10.794;2023-04-23T06:01:40;11.70;99.90
60868;DHT22;46702;48.370;10.794;2023-04-23T06:04:06;11.80;99.90
60868;DHT22;46702;48.370;10.794;2023-04-23T06:06:32;11.80;99.90
60868;DHT22;46702;48.370;10.794;2023-04-23T06:08:57;11.80;99.90
60868;DHT22;46702;48.370;10.794;2023-04-23T06:11:23;11.80;99.90
60868;DHT22;46702;48.370;10.794;2023-04-23T06:13:49;11.90;99.90
60868;DHT22;46702;48.370;10.794;2023-04-23T06:16:15;11.90;99.90
60868;DHT22;46702;48.370;10.794;2023-04-23T06:18:40;11.90;99.90
60868;DHT22;46702;48.370;10.794;2023-04-23T06:21:06;11.90;99.90
60868;DHT22;46702;48.370;10.794;2023-04-23T06:23:32;11.90;99.90
60868;DHT22;46702;48.370;10.794;2023-04-23T06:25:58;11.90;99.90
60868;DHT22;46702;48.370;10.794;2023-04-23T06:28:25;12.00;99.90
60868;DHT22;46702;48.370;10.794;2023-04-23T06:30:51;12.00;99.90
60868;DHT22;46702;48.370;10.794;2023-04-23T06:33:17;12.00;99.90
60868;DHT22;46702;48.370;10.794;2023-04-23T06:35:42;12.10;99.90
60868;DHT22;46702;48.370;10.794;2023-04-23T06:38:08;12.10;99.90
60868;DHT22;46702;48.370;10.794;2023-04-23T06:40:34;12.10;99.90
60868;DHT22;46702;48.370;10.794;2023-04-23T06:42:59;12.10;99.90
60868;DHT22;46702;48.370;10.794;2023-04-23T06:45:29;12.10;99.90
60868;DHT22;46702;48.370;10.794;2023-04-23T06:47:56;12.10;99.90
60868;DHT22;46702;48.370;10.794;2023-04-23T06:50:22;12.10;99.90
60868;DHT22;46702;48.370;10.794;2023-04-23T06:52:47;12.10;99.90
60868;DHT22;46702;48.370;10.794;2023-04-23T06:55:13;12.20;99.90
60868;DHT22;46702;48.370;10.794;2023-04-23T06:57:39;12.20;99.90
60868;DHT22;46702;48.370;10.794;2023-04-23T07:00:06;12.20;99.90
60868;DHT22;46702;48.370;10.794;2023-04-23T07:02:33;12.20;99.90
60868;DHT22;46702;48.370;10.794;2023-04-23T07:04:59;12.20;99.90
60868;DHT22;46702;48.370;10.794;2023-04-23T07:07:25;12.20;99.90
60868;DHT22;46702;48.370;10.794;2023-04-23T07:09:50;12.30;99.90
60868;DHT22;46702;48.370;10.794;2023-04-23T07:12:16;12.20;99.90
60868;DHT22;46702;48.370;10.794;2023-04-23T07:14:42;12.30;99.90
60868;DHT22;46702;48.370;10.794;2023-04-23T07:17:07;12.30;99.90
60868;DHT22;46702;48.370;10.794;2023-04-23T07:19:35;12.40;99.90
60868;DHT22;46702;48.370;10.794;2023-04-23T07:22:00;12.40;99.90
60868;DHT22;46702;48.370;10.794;2023-04-23T07:24:26;12.40;99.90
60868;DHT22;46702;48.370;10.794;2023-04-23T07:26:52;12.40;99.90
60868;DHT22;46702;48.370;10.794;2023-04-23T07:29:17;12.40;99.90
60868;DHT22;46702;48.370;10.794;2023-04-23T07:31:43;12.40;99.90
60868;DHT22;46702;48.370;10.794;2023-04-23T07:34:09;12.40;99.90
60868;DHT22;46702;48.370;10.794;2023-04-23T07:36:35;12.50;99.90
60868;DHT22;46702;48.370;10.794;2023-04-23T07:39:00;12.60;99.90
60868;DHT22;46702;48.370;10.794;2023-04-23T07:41:26;12.60;99.90
60868;DHT22;46702;48.370;10.794;2023-04-23T07:43:52;12.70;99.90
60868;DHT22;46702;48.370;10.794;2023-04-23T07:46:17;12.80;99.90
60868;DHT22;46702;48.370;10.794;2023-04-23T07:48:44;12.80;99.90
60868;DHT22;46702;48.370;10.794;2023-04-23T07:51:10;12.90;99.90
60868;DHT22;46702;48.370;10.794;2023-04-23T07:53:35;13.00;99.90
60868;DHT22;46702;48.370;10.794;2023-04-23T07:56:01;13.00;99.90
60868;DHT22;46702;48.370;10.794;2023-04-23T07:58:26;13.10;99.90
60868;DHT22;46702;48.370;10.794;2023-04-23T08:00:52;13.10;99.90
60868;DHT22;46702;48.370;10.794;2023-04-23T08:03:18;13.10;99.90
60868;DHT22;46702;48.370;10.794;2023-04-23T08:05:43;13.20;99.90
60868;DHT22;46702;48.370;10.794;2023-04-23T08:08:10;13.30;99.90
60868;DHT22;46702;48.370;10.794;2023-04-23T08:10:36;13.40;99.90
60868;DHT22;46702;48.370;10.794;2023-04-23T08:13:02;13.40;99.90
60868;DHT22;46702;48.370;10.794;2023-04-23T08:15:28;13.50;99.90
60868;DHT22;46702;48.370;10.794;2023-04-23T08:17:53;13.60;99.90
60868;DHT22;46702;48.370;10.794;2023-04-23T08:20:19;13.60;99.90
60868;DHT22;46702;48.370;10.794;2023-04-23T08:22:45;13.50;99.90
60868;DHT22;46702;48.370;10.794;2023-04-23T08:25:10;13.50;99.90
60868;DHT22;46702;48.370;10.794;2023-04-23T08:27:37;13.50;99.90
60868;DHT22;46702;48.370;10.794;2023-04-23T08:30:03;13.60;99.90
60868;DHT22;46702;48.370;10.794;2023-04-23T08:32:29;13.60;99.90
60868;DHT22;46702;48.370;10.794;2023-04-23T08:34:55;13.80;99.90
60868;DHT22;46702;48.370;10.794;2023-04-23T08:37:20;14.00;99.90
60868;DHT22;46702;48.370;10.794;2023-04-23T08:39:46;14.20;99.90
60868;DHT22;46702;48.370;10.794;2023-04-23T08:42:29;14.10;99.90
60868;DHT22;46702;48.370;10.794;2023-04-23T08:44:56;14.10;99.90
60868;DHT22;46702;48.370;10.794;2023-04-23T08:47:23;14.40;99.90
60868;DHT22;46702;48.370;10.794;2023-04-23T08:49:53;14.60;99.90
60868;DHT22;46702;48.370;10.794;2023-04-23T08:52:23;14.80;99.90
60868;DHT22;46702;48.370;10.794;2023-04-23T08:54:52;14.70;99.90
60868;DHT22;46702;48.370;10.794;2023-04-23T08:57:18;14.90;99.90
60868;DHT22;46702;48.370;10.794;2023-04-23T08:59:44;15.00;99.90
60868;DHT22;46702;48.370;10.794;2023-04-23T09:02:11;14.90;99.90
60868;DHT22;46702;48.370;10.794;2023-04-23T09:04:37;15.10;99.90
60868;DHT22;46702;48.370;10.794;2023-04-23T09:07:03;14.80;99.90
60868;DHT22;46702;48.370;10.794;2023-04-23T09:09:29;14.80;99.90
60868;DHT22;46702;48.370;10.794;2023-04-23T09:11:56;14.90;99.90
60868;DHT22;46702;48.370;10.794;2023-04-23T09:14:22;14.80;99.90
60868;DHT22;46702;48.370;10.794;2023-04-23T09:16:52;15.00;99.90
60868;DHT22;46702;48.370;10.794;2023-04-23T09:19:18;15.20;99.90
60868;DHT22;46702;48.370;10.794;2023-04-23T09:21:44;15.30;99.90
60868;DHT22;46702;48.370;10.794;2023-04-23T09:24:11;15.50;99.90
60868;DHT22;46702;48.370;10.794;2023-04-23T09:26:44;15.60;99.90
60868;DHT22;46702;48.370;10.794;2023-04-23T09:29:22;15.60;99.90
60868;DHT22;46702;48.370;10.794;2023-04-23T09:31:54;15.60;99.90
60868;DHT22;46702;48.370;10.794;2023-04-23T09:34:22;15.50;99.90
60868;DHT22;46702;48.370;10.794;2023-04-23T09:36:49;15.30;99.90
60868;DHT22;46702;48.370;10.794;2023-04-23T09:39:17;15.20;99.90
60868;DHT22;46702;48.370;10.794;2023-04-23T09:41:43;15.00;99.90
60868;DHT22;46702;48.370;10.794;2023-04-23T09:44:23;15.00;99.90
60868;DHT22;46702;48.370;10.794;2023-04-23T09:46:49;15.10;99.90
60868;DHT22;46702;48.370;10.794;2023-04-23T09:49:15;15.20;99.90
60868;DHT22;46702;48.370;10.794;2023-04-23T09:51:46;15.30;99.90
60868;DHT22;46702;48.370;10.794;2023-04-23T09:54:16;15.60;99.90
60868;DHT22;46702;48.370;10.794;2023-04-23T09:56:43;16.00;99.90
60868;DHT22;46702;48.370;10.794;2023-04-23T09:59:29;16.20;99.90
60868;DHT22;46702;48.370;10.794;2023-04-23T10:01:55;16.10;99.90
60868;DHT22;46702;48.370;10.794;2023-04-23T10:04:22;16.20;99.90
60868;DHT22;46702;48.370;10.794;2023-04-23T10:06:53;16.40;99.90
60868;DHT22;46702;48.370;10.794;2023-04-23T10:09:20;16.70;99.90
60868;DHT22;46702;48.370;10.794;2023-04-23T10:11:51;17.00;99.90
60868;DHT22;46702;48.370;10.794;2023-04-23T10:14:18;17.00;99.90
60868;DHT22;46702;48.370;10.794;2023-04-23T10:16:46;16.80;99.90
60868;DHT22;46702;48.370;10.794;2023-04-23T10:19:14;17.10;99.90
60868;DHT22;46702;48.370;10.794;2023-04-23T10:21:43;17.10;99.90
60868;DHT22;46702;48.370;10.794;2023-04-23T10:24:10;16.80;99.90
60868;DHT22;46702;48.370;10.794;2023-04-23T10:26:41;16.70;99.90
60868;DHT22;46702;48.370;10.794;2023-04-23T10:29:11;16.50;99.90
60868;DHT22;46702;48.370;10.794;2023-04-23T10:31:37;16.60;99.90
60868;DHT22;46702;48.370;10.794;2023-04-23T10:34:03;16.50;99.90
60868;DHT22;46702;48.370;10.794;2023-04-23T10:36:32;16.50;99.90
60868;DHT22;46702;48.370;10.794;2023-04-23T10:38:58;16.60;99.90
60868;DHT22;46702;48.370;10.794;2023-04-23T10:41:36;16.80;99.90
60868;DHT22;46702;48.370;10.794;2023-04-23T10:44:04;17.10;99.90
60868;DHT22;46702;48.370;10.794;2023-04-23T10:46:30;17.10;99.90
60868;DHT22;46702;48.370;10.794;2023-04-23T10:49:07;17.00;99.90
60868;DHT22;46702;48.370;10.794;2023-04-23T10:51:36;17.00;99.90
60868;DHT22;46702;48.370;10.794;2023-04-23T10:54:02;17.10;99.90
60868;DHT22;46702;48.370;10.794;2023-04-23T10:56:29;17.20;99.90
60868;DHT22;46702;48.370;10.794;2023-04-23T10:58:55;17.10;99.90
60868;DHT22;46702;48.370;10.794;2023-04-23T11:01:24;16.90;99.90
60868;DHT22;46702;48.370;10.794;2023-04-23T11:03:50;16.80;99.90
60868;DHT22;46702;48.370;10.794;2023-04-23T11:09:36;16.90;99.90
60868;DHT22;46702;48.370;10.794;2023-04-23T11:12:05;17.20;99.90
60868;DHT22;46702;48.370;10.794;2023-04-23T11:14:44;17.00;99.90
60868;DHT22;46702;48.370;10.794;2023-04-23T11:17:17;16.70;99.00
60868;DHT22;46702;48.370;10.794;2023-04-23T11:20:08;16.60;99.90
60868;DHT22;46702;48.370;10.794;2023-04-23T11:27:44;17.40;99.90
60868;DHT22;46702;48.370;10.794;2023-04-23T11:30:14;17.70;99.90
60868;DHT22;46702;48.370;10.794;2023-04-23T11:32:41;17.40;99.90
60868;DHT22;46702;48.370;10.794;2023-04-23T11:35:08;17.20;97.40
60868;DHT22;46702;48.370;10.794;2023-04-23T11:37:39;17.20;99.90
60868;DHT22;46702;48.370;10.794;2023-04-23T11:40:10;17.10;99.90
60868;DHT22;46702;48.370;10.794;2023-04-23T11:42:40;17.20;99.90
60868;DHT22;46702;48.370;10.794;2023-04-23T11:47:39;17.10;99.90
60868;DHT22;46702;48.370;10.794;2023-04-23T11:50:06;16.90;99.90
60868;DHT22;46702;48.370;10.794;2023-04-23T11:52:32;17.00;99.90
60868;DHT22;46702;48.370;10.794;2023-04-23T11:55:02;16.90;99.90
60868;DHT22;46702;48.370;10.794;2023-04-23T11:57:28;16.90;99.90
60868;DHT22;46702;48.370;10.794;2023-04-23T11:59:54;17.10;99.90
60868;DHT22;46702;48.370;10.794;2023-04-23T12:02:23;17.50;99.90
60868;DHT22;46702;48.370;10.794;2023-04-23T12:04:49;18.00;99.90
60868;DHT22;46702;48.370;10.794;2023-04-23T12:07:14;17.70;96.00
60868;DHT22;46702;48.370;10.794;2023-04-23T12:09:40;17.90;99.40
60868;DHT22;46702;48.370;10.794;2023-04-23T12:12:06;17.70;97.70
60868;DHT22;46702;48.370;10.794;2023-04-23T12:14:31;17.50;99.70
60868;DHT22;46702;48.370;10.794;2023-04-23T12:17:08;17.60;99.90
60868;DHT22;46702;48.370;10.794;2023-04-23T12:19:34;17.80;98.40
60868;DHT22;46702;48.370;10.794;2023-04-23T12:22:01;17.90;99.90
60868;DHT22;46702;48.370;10.794;2023-04-23T12:24:44;17.70;99.90
60868;DHT22;46702;48.370;10.794;2023-04-23T12:27:13;17.70;99.90
60868;DHT22;46702;48.370;10.794;2023-04-23T12:29:40;17.80;97.40
60868;DHT22;46702;48.370;10.794;2023-04-23T12:32:09;18.10;98.80
60868;DHT22;46702;48.370;10.794;2023-04-23T12:34:35;17.90;99.60
60868;DHT22;46702;48.370;10.794;2023-04-23T12:37:05;17.80;98.80
60868;DHT22;46702;48.370;10.794;2023-04-23T12:39:32;17.60;99.90
60868;DHT22;46702;48.370;10.794;2023-04-23T12:42:01;17.50;99.10
60868;DHT22;46702;48.370;10.794;2023-04-23T12:44:30;17.90;99.90
60868;DHT22;46702;48.370;10.794;2023-04-23T12:47:06;18.30;99.90
60868;DHT22;46702;48.370;10.794;2023-04-23T12:49:33;18.30;99.90
60868;DHT22;46702;48.370;10.794;2023-04-23T12:52:00;18.60;99.90
60868;DHT22;46702;48.370;10.794;2023-04-23T12:54:27;18.70;99.60
60868;DHT22;46702;48.370;10.794;2023-04-23T12:56:54;18.60;95.30
60868;DHT22;46702;48.370;10.794;2023-04-23T12:59:20;18.70;99.30
60868;DHT22;46702;48.370;10.794;2023-04-23T13:01:47;18.70;95.90
60868;DHT22;46702;48.370;10.794;2023-04-23T13:04:13;18.60;93.30
60868;DHT22;46702;48.370;10.794;2023-04-23T13:06:39;18.70;95.60
60868;DHT22;46702;48.370;10.794;2023-04-23T13:09:04;18.90;97.30
60868;DHT22;46702;48.370;10.794;2023-04-23T13:11:31;18.90;96.80
60868;DHT22;46702;48.370;10.794;2023-04-23T13:13:57;18.80;98.30
60868;DHT22;46702;48.370;10.794;2023-04-23T13:16:22;18.70;92.00
60868;DHT22;46702;48.370;10.794;2023-04-23T13:18:48;19.00;95.60
60868;DHT22;46702;48.370;10.794;2023-04-23T13:21:16;19.20;99.10
60868;DHT22;46702;48.370;10.794;2023-04-23T13:23:41;19.20;94.30
60868;DHT22;46702;48.370;10.794;2023-04-23T13:26:07;19.20;93.90
60868;DHT22;46702;48.370;10.794;2023-04-23T13:28:34;19.00;91.80
60868;DHT22;46702;48.370;10.794;2023-04-23T13:31:00;19.40;94.60
60868;DHT22;46702;48.370;10.794;2023-04-23T13:33:25;19.60;99.80
60868;DHT22;46702;48.370;10.794;2023-04-23T13:35:51;19.70;90.40
60868;DHT22;46702;48.370;10.794;2023-04-23T13:38:17;19.70;93.80
60868;DHT22;46702;48.370;10.794;2023-04-23T13:40:43;19.40;84.80
60868;DHT22;46702;48.370;10.794;2023-04-23T13:43:08;19.50;96.40
60868;DHT22;46702;48.370;10.794;2023-04-23T13:45:34;19.60;95.50
60868;DHT22;46702;48.370;10.794;2023-04-23T13:48:00;19.80;87.10
60868;DHT22;46702;48.370;10.794;2023-04-23T13:50:27;19.60;72.30
60868;DHT22;46702;48.370;10.794;2023-04-23T13:52:52;19.40;74.00
60868;DHT22;46702;48.370;10.794;2023-04-23T13:55:18;18.90;77.50
60868;DHT22;46702;48.370;10.794;2023-04-23T13:57:44;19.30;91.60
60868;DHT22;46702;48.370;10.794;2023-04-23T14:00:10;19.20;77.10
60868;DHT22;46702;48.370;10.794;2023-04-23T14:02:37;19.10;80.00
60868;DHT22;46702;48.370;10.794;2023-04-23T14:05:03;19.00;79.30
60868;DHT22;46702;48.370;10.794;2023-04-23T14:07:31;19.10;90.10
60868;DHT22;46702;48.370;10.794;2023-04-23T14:09:56;19.50;83.50
60868;DHT22;46702;48.370;10.794;2023-04-23T14:12:22;19.60;80.70
60868;DHT22;46702;48.370;10.794;2023-04-23T14:14:48;19.40;74.80
60868;DHT22;46702;48.370;10.794;2023-04-23T14:17:14;19.40;84.40
60868;DHT22;46702;48.370;10.794;2023-04-23T14:19:40;19.40;80.80
60868;DHT22;46702;48.370;10.794;2023-04-23T14:22:06;19.40;75.60
60868;DHT22;46702;48.370;10.794;2023-04-23T14:24:32;19.30;86.10
60868;DHT22;46702;48.370;10.794;2023-04-23T14:26:59;19.40;76.90
60868;DHT22;46702;48.370;10.794;2023-04-23T14:30:01;19.50;83.10
60868;DHT22;46702;48.370;10.794;2023-04-23T14:32:29;19.40;84.70
60868;DHT22;46702;48.370;10.794;2023-04-23T14:34:55;19.50;81.80
60868;DHT22;46702;48.370;10.794;2023-04-23T14:37:20;19.60;81.40
60868;DHT22;46702;48.370;10.794;2023-04-23T14:39:46;19.90;85.00
60868;DHT22;46702;48.370;10.794;2023-04-23T14:42:11;20.00;84.00
60868;DHT22;46702;48.370;10.794;2023-04-23T14:44:37;20.20;80.80
60868;DHT22;46702;48.370;10.794;2023-04-23T14:47:03;20.10;72.30
60868;DHT22;46702;48.370;10.794;2023-04-23T14:49:28;19.90;71.60
60868;DHT22;46702;48.370;10.794;2023-04-23T14:51:54;19.60;76.10
60868;DHT22;46702;48.370;10.794;2023-04-23T14:54:20;19.80;74.60
60868;DHT22;46702;48.370;10.794;2023-04-23T14:56:46;19.80;68.50
60868;DHT22;46702;48.370;10.794;2023-04-23T14:59:11;19.60;78.00
60868;DHT22;46702;48.370;10.794;2023-04-23T15:01:37;19.80;72.80
60868;DHT22;46702;48.370;10.794;2023-04-23T15:04:03;19.80;84.60
60868;DHT22;46702;48.370;10.794;2023-04-23T15:06:29;19.80;91.60
60868;DHT22;46702;48.370;10.794;2023-04-23T15:08:54;19.80;95.50
60868;DHT22;46702;48.370;10.794;2023-04-23T15:11:20;19.50;92.60
60868;DHT22;46702;48.370;10.794;2023-04-23T15:14:24;19.20;91.40
60868;DHT22;46702;48.370;10.794;2023-04-23T15:16:50;18.80;97.30
60868;DHT22;46702;48.370;10.794;2023-04-23T15:19:17;18.70;96.60
60868;DHT22;46702;48.370;10.794;2023-04-23T15:21:43;18.50;97.10
60868;DHT22;46702;48.370;10.794;2023-04-23T15:24:08;18.30;93.80